Time;durP1;ratioP1;P1;durP2;ratioP2;P2;SDS_P1;SDS_P2;PMS_P1;PMS_P2;Temp;Humidity;BMP_temperature;BMP_pressure;BME280_temperature;BME280_humidity;BME280_pressure;Samples;Min_cycle;Max_cycle;Signal;HPM_P1;HPM_P2
2022/04/03 00:00:13;;;;;;;188.23;63.13;;;;;;;-0.09;100.00;100522.44;5060333;28;20231;-64
2022/04/03 00:02:38;;;;;;;185.60;63.23;;;;;;;-0.10;100.00;100525.78;5064782;28;20187;-64
2022/04/03 00:05:05;;;;;;;209.73;64.33;;;;;;;-0.11;100.00;100526.59;5061391;28;20201;-64
2022/04/03 00:07:31;;;;;;;182.63;63.03;;;;;;;-0.11;100.00;100524.06;5074252;28;20578;-64
2022/04/03 00:09:56;;;;;;;185.50;63.70;;;;;;;-0.12;100.00;100521.44;5056438;28;20223;-64
2022/04/03 00:12:22;;;;;;;187.43;65.53;;;;;;;-0.14;100.00;100518.84;5061086;28;20214;-64
2022/04/03 00:14:48;;;;;;;205.43;63.23;;;;;;;-0.15;100.00;100524.75;5061829;28;20268;-64
2022/04/03 00:17:13;;;;;;;201.87;66.57;;;;;;;-0.17;100.00;100523.81;5058575;28;21096;-64
2022/04/03 00:19:38;;;;;;;202.27;70.20;;;;;;;-0.18;100.00;100522.97;5057984;28;20212;-64
2022/04/03 00:22:04;;;;;;;190.67;66.63;;;;;;;-0.17;100.00;100522.16;5059889;28;20280;-64
2022/04/03 00:24:29;;;;;;;206.13;69.77;;;;;;;-0.16;100.00;100526.44;5065766;28;20176;-64
2022/04/03 00:26:55;;;;;;;204.73;66.93;;;;;;;-0.11;100.00;100526.59;5063262;28;20570;-64
2022/04/03 00:29:21;;;;;;;201.63;66.03;;;;;;;-0.07;100.00;100528.44;5060851;28;20203;-64
2022/04/03 00:31:46;;;;;;;197.50;66.47;;;;;;;-0.01;100.00;100528.69;5058853;28;20203;-64
2022/04/03 00:34:11;;;;;;;201.10;69.97;;;;;;;0.05;100.00;100532.28;5062403;28;20589;-65
2022/04/03 00:36:37;;;;;;;200.97;71.10;;;;;;;0.08;100.00;100533.25;5059280;28;20221;-64
2022/04/03 00:39:02;;;;;;;220.70;73.13;;;;;;;0.13;100.00;100529.22;5055588;28;20317;-64
2022/04/03 00:41:28;;;;;;;222.30;71.00;;;;;;;0.17;100.00;100539.47;5065850;28;20648;-64
2022/04/03 00:43:54;;;;;;;194.50;68.43;;;;;;;0.21;100.00;100532.03;5062397;28;20192;-64
2022/04/03 00:46:23;;;;;;;202.10;69.00;;;;;;;0.21;100.00;100532.03;5069123;28;20178;-64
2022/04/03 00:48:48;;;;;;;205.73;68.43;;;;;;;0.20;100.00;100535.41;5064760;28;20261;-64
2022/04/03 00:51:14;;;;;;;201.00;67.30;;;;;;;0.20;100.00;100537.06;5059881;28;20186;-64
2022/04/03 00:53:39;;;;;;;217.47;70.17;;;;;;;0.20;100.00;100540.47;5058895;28;20594;-64
2022/04/03 00:56:06;;;;;;;200.60;65.30;;;;;;;0.19;100.00;100533.66;5059001;28;20179;-64
2022/04/03 00:58:31;;;;;;;189.37;63.13;;;;;;;0.17;100.00;100537.81;5060928;28;20257;-64
2022/04/03 01:00:57;;;;;;;176.43;62.77;;;;;;;0.19;100.00;100536.19;5060177;28;20667;-64
2022/04/03 01:03:23;;;;;;;194.30;65.67;;;;;;;0.21;100.00;100543.88;5060967;28;20540;-64
2022/04/03 01:05:48;;;;;;;183.67;65.73;;;;;;;0.21;100.00;100537.13;5059522;28;20674;-64
2022/04/03 01:08:14;;;;;;;195.93;70.53;;;;;;;0.23;100.00;100534.63;5065447;28;20296;-64
2022/04/03 01:10:40;;;;;;;208.67;70.60;;;;;;;0.23;100.00;100542.25;5061064;28;20572;-64
2022/04/03 01:13:06;;;;;;;207.33;69.70;;;;;;;0.23;100.00;100540.56;5060745;28;20698;-64
2022/04/03 01:15:33;;;;;;;203.33;70.63;;;;;;;0.23;100.00;100539.72;5063054;28;20282;-64
2022/04/03 01:17:58;;;;;;;205.93;67.20;;;;;;;0.25;100.00;100545.75;5064439;28;20249;-64
2022/04/03 01:20:24;;;;;;;208.73;69.20;;;;;;;0.26;100.00;100544.94;5059046;28;20186;-64
2022/04/03 01:22:49;;;;;;;187.07;63.07;;;;;;;0.26;100.00;100540.69;5060540;28;20182;-63
2022/04/03 01:25:15;;;;;;;175.40;62.93;;;;;;;0.28;100.00;100543.31;5060950;28;20647;-64
2022/04/03 01:27:41;;;;;;;171.30;60.50;;;;;;;0.29;100.00;100539.97;5061182;28;20191;-66
2022/04/03 01:30:07;;;;;;;166.03;60.30;;;;;;;0.31;100.00;100538.31;5065007;28;20201;-63
2022/04/03 01:32:33;;;;;;;188.60;62.63;;;;;;;0.32;100.00;100532.41;5057047;28;20216;-64
2022/04/03 01:34:58;;;;;;;180.30;62.27;;;;;;;0.35;100.00;100531.69;5060081;28;20269;-64
2022/04/03 01:37:24;;;;;;;181.17;63.10;;;;;;;0.35;100.00;100540.16;5058674;28;20202;-64
2022/04/03 01:39:49;;;;;;;187.60;61.07;;;;;;;0.36;100.00;100535.97;5061741;28;20625;-64
2022/04/03 01:42:15;;;;;;;189.17;59.93;;;;;;;0.37;100.00;100541.09;5061830;28;20739;-64
2022/04/03 01:44:40;;;;;;;183.47;63.27;;;;;;;0.39;100.00;100543.69;5058425;28;20273;-64
2022/04/03 01:47:06;;;;;;;185.20;66.03;;;;;;;0.41;100.00;100542.94;5059603;28;20186;-64
2022/04/03 01:49:34;;;;;;;215.70;69.60;;;;;;;0.42;100.00;100531.94;5059254;28;20194;-64
2022/04/03 01:51:59;;;;;;;193.50;66.20;;;;;;;0.44;100.00;100547.28;5060564;28;20204;-64
2022/04/03 01:54:24;;;;;;;211.63;70.67;;;;;;;0.45;100.00;100536.28;5057494;28;20183;-64
2022/04/03 01:56:50;;;;;;;219.20;72.33;;;;;;;0.46;100.00;100535.47;5067715;28;20189;-64
2022/04/03 01:59:15;;;;;;;214.10;73.77;;;;;;;0.47;100.00;100539.75;5072916;28;20202;-64
2022/04/03 02:01:40;;;;;;;216.53;72.13;;;;;;;0.48;100.00;100538.06;5066842;28;20216;-64
2022/04/03 02:04:06;;;;;;;222.60;75.77;;;;;;;0.47;100.00;100539.75;5054597;28;20187;-64
2022/04/03 02:06:32;;;;;;;231.20;78.33;;;;;;;0.47;100.00;100538.88;5057615;28;20224;-64
2022/04/03 02:08:57;;;;;;;221.07;76.50;;;;;;;0.48;100.00;100540.59;5061023;28;20205;-64
2022/04/03 02:11:22;;;;;;;226.33;74.63;;;;;;;0.48;100.00;100548.25;5058284;28;20193;-64
2022/04/03 02:13:48;;;;;;;223.37;74.63;;;;;;;0.50;100.00;100544.09;5061973;28;20186;-65
2022/04/03 02:16:15;;;;;;;222.50;74.20;;;;;;;0.52;100.00;100545.88;5061018;28;20181;-64
2022/04/03 02:18:41;;;;;;;218.43;74.87;;;;;;;0.54;100.00;100545.94;5056960;28;20781;-65
2022/04/03 02:21:06;;;;;;;210.40;74.03;;;;;;;0.55;100.00;100545.13;5056898;28;20192;-64
2022/04/03 02:23:31;;;;;;;208.07;71.33;;;;;;;0.57;100.00;100548.59;5056752;28;20185;-64
2022/04/03 02:25:57;;;;;;;213.67;71.17;;;;;;;0.58;100.00;100548.63;5055437;28;20192;-64
2022/04/03 02:28:22;;;;;;;206.00;71.60;;;;;;;0.60;100.00;100548.72;5056439;28;20626;-64
2022/04/03 02:30:48;;;;;;;223.07;74.40;;;;;;;0.59;100.00;100540.19;5060035;28;20220;-64
2022/04/03 02:33:14;;;;;;;216.37;70.43;;;;;;;0.60;100.00;100547.03;5067980;28;20237;-64
2022/04/03 02:35:40;;;;;;;210.13;70.27;;;;;;;0.60;100.00;100548.72;5054240;28;20727;-64
2022/04/03 02:38:05;;;;;;;204.33;70.67;;;;;;;0.60;100.00;100551.25;5058185;28;20258;-63
2022/04/03 02:40:31;;;;;;;219.07;70.60;;;;;;;0.58;100.00;100543.53;5057403;28;20230;-64
2022/04/03 02:42:57;;;;;;;236.87;78.63;;;;;;;0.59;100.00;100546.97;5062430;28;20502;-65
2022/04/03 02:45:23;;;;;;;254.90;84.37;;;;;;;0.58;100.00;100555.44;5061868;28;20185;-64
2022/04/03 02:47:53;;;;;;;236.57;78.27;;;;;;;0.57;100.00;100552.00;5055113;28;20181;-64
2022/04/03 02:50:20;;;;;;;247.77;81.03;;;;;;;0.57;100.00;100556.25;5054154;28;20231;-64
2022/04/03 02:52:50;;;;;;;233.33;77.40;;;;;;;0.57;100.00;100546.91;5056806;28;20210;-64
2022/04/03 02:55:20;;;;;;;224.10;75.00;;;;;;;0.56;100.00;100552.81;5053323;28;20539;-64
2022/04/03 02:57:46;;;;;;;217.30;70.17;;;;;;;0.56;100.00;100552.81;5054060;28;20194;-64
2022/04/03 03:00:15;;;;;;;217.90;70.37;;;;;;;0.57;100.00;100553.69;5054023;28;20407;-64
2022/04/03 03:02:41;;;;;;;219.43;72.07;;;;;;;0.57;100.00;100564.72;5055926;28;20185;-64
2022/04/03 03:05:07;;;;;;;205.73;67.63;;;;;;;0.57;100.00;100563.88;5053372;28;20188;-64
2022/04/03 03:07:37;;;;;;;221.37;73.03;;;;;;;0.55;100.00;100563.81;5054932;28;20259;-64
2022/04/03 03:10:07;;;;;;;206.50;69.40;;;;;;;0.54;100.00;100567.16;5056408;28;20234;-63
2022/04/03 03:12:32;;;;;;;216.43;71.70;;;;;;;0.52;100.00;100558.63;5058832;28;20273;-65
2022/04/03 03:14:58;;;;;;;217.43;70.67;;;;;;;0.49;100.00;100557.63;5053672;28;20190;-62
2022/04/03 03:17:24;;;;;;;305.47;91.30;;;;;;;0.45;100.00;100560.06;5053712;28;20187;-65
2022/04/03 03:19:49;;;;;;;249.27;80.03;;;;;;;0.41;100.00;100559.88;5056572;28;20201;-63
2022/04/03 03:22:14;;;;;;;259.57;81.23;;;;;;;0.36;100.00;100564.81;5059020;28;20192;-65
2022/04/03 03:24:40;;;;;;;253.97;82.70;;;;;;;0.33;100.00;100563.84;5056239;28;20174;-65
2022/04/03 03:27:06;;;;;;;290.37;85.77;;;;;;;0.28;100.00;100564.53;5051332;28;20622;-66
2022/04/03 03:29:31;;;;;;;252.23;80.43;;;;;;;0.25;100.00;100569.50;5055297;28;20207;-62
2022/04/03 03:31:56;;;;;;;231.57;78.40;;;;;;;0.23;100.00;100565.16;5055516;28;20218;-64
2022/04/03 03:34:22;;;;;;;232.13;74.80;;;;;;;0.23;100.00;100560.94;5074663;28;20549;-63
2022/04/03 03:36:47;;;;;;;203.43;72.03;;;;;;;0.24;100.00;100566.91;5063112;28;20232;-66
2022/04/03 03:39:13;;;;;;;199.03;69.00;;;;;;;0.23;100.00;100562.63;5054382;28;20243;-63
2022/04/03 03:41:39;;;;;;;210.03;70.23;;;;;;;0.25;100.00;100568.66;5057626;28;20635;-65
2022/04/03 03:44:10;;;;;;;201.40;68.37;;;;;;;0.25;100.00;100577.13;5062852;28;20190;-63
2022/04/03 03:46:36;;;;;;;233.97;75.90;;;;;;;0.23;100.00;100572.81;5061818;28;20213;-64
2022/04/03 03:49:06;;;;;;;260.83;82.17;;;;;;;0.20;100.00;100571.03;5063275;28;20213;-63
2022/04/03 03:51:32;;;;;;;255.33;80.40;;;;;;;0.18;100.00;100569.22;5059370;28;20216;-63
2022/04/03 03:53:57;;;;;;;214.30;71.27;;;;;;;0.17;100.00;100576.00;5060123;28;20235;-63
2022/04/03 03:56:23;;;;;;;263.53;78.80;;;;;;;0.13;100.00;100572.47;5056090;28;20663;-63
2022/04/03 03:58:48;;;;;;;254.47;80.20;;;;;;;0.11;100.00;100570.66;5057361;28;20202;-63
2022/04/03 04:01:14;;;;;;;236.87;75.23;;;;;;;0.08;100.00;100573.97;5060515;28;20182;-63
2022/04/03 04:03:39;;;;;;;223.47;72.47;;;;;;;0.11;100.00;100574.09;5056532;28;20260;-63
2022/04/03 04:06:06;;;;;;;226.00;73.87;;;;;;;0.16;100.00;100581.88;5058014;28;20180;-64
2022/04/03 04:08:32;;;;;;;201.97;69.03;;;;;;;0.20;100.00;100587.97;5055467;28;20230;-63
2022/04/03 04:10:58;;;;;;;219.20;69.67;;;;;;;0.23;100.00;100586.38;5058539;28;20601;-63
2022/04/03 04:13:24;;;;;;;206.20;67.33;;;;;;;0.25;100.00;100581.38;5056258;28;20199;-63
2022/04/03 04:15:50;;;;;;;194.53;63.97;;;;;;;0.28;100.00;100587.44;5061399;28;20183;-63
2022/04/03 04:18:15;;;;;;;242.33;76.60;;;;;;;0.28;100.00;100592.53;5060978;28;20211;-63
2022/04/03 04:20:40;;;;;;;218.83;69.07;;;;;;;0.28;100.00;100589.13;5061770;28;20186;-63
2022/04/03 04:23:06;;;;;;;211.17;65.87;;;;;;;0.28;100.00;100592.53;5059605;28;20181;-63
2022/04/03 04:25:31;;;;;;;207.43;69.60;;;;;;;0.29;100.00;100596.81;5061287;28;20686;-64
2022/04/03 04:27:57;;;;;;;270.10;82.87;;;;;;;0.30;100.00;100592.63;5059561;28;20258;-63
2022/04/03 04:30:23;;;;;;;288.40;82.33;;;;;;;0.27;100.00;100598.44;5061266;28;20659;-64
2022/04/03 04:32:48;;;;;;;264.30;81.93;;;;;;;0.25;100.00;100606.84;5064445;28;20295;-65
2022/04/03 04:35:14;;;;;;;276.13;85.57;;;;;;;0.22;100.00;100599.97;5066113;28;20218;-63
2022/04/03 04:37:41;;;;;;;295.60;88.97;;;;;;;0.18;100.00;100608.28;5062469;28;20182;-63
2022/04/03 04:40:07;;;;;;;227.67;77.07;;;;;;;0.13;100.00;100600.47;5061225;28;20211;-63
2022/04/03 04:42:32;;;;;;;222.73;74.47;;;;;;;0.12;100.00;100603.81;5057682;28;20822;-63
2022/04/03 04:44:58;;;;;;;294.13;91.17;;;;;;;0.12;100.00;100611.47;5065704;28;20185;-63
2022/04/03 04:47:23;;;;;;;286.90;90.67;;;;;;;0.09;100.00;100613.00;5063449;28;20213;-63
2022/04/03 04:49:49;;;;;;;234.90;80.00;;;;;;;0.06;100.00;100616.28;5068721;28;20578;-65
2022/04/03 04:52:14;;;;;;;234.63;81.83;;;;;;;0.04;100.00;100615.38;5060492;28;20667;-63
2022/04/03 04:54:39;;;;;;;262.73;85.97;;;;;;;0.06;100.00;100623.06;5059679;28;20187;-63
2022/04/03 04:57:05;;;;;;;221.67;79.20;;;;;;;0.04;100.00;100623.00;5060214;28;20191;-64
2022/04/03 04:59:30;;;;;;;276.07;88.40;;;;;;;0.04;100.00;100620.44;5056144;28;20529;-64
2022/04/03 05:01:58;;;;;;;267.70;91.53;;;;;;;0.06;100.00;100620.53;5057694;28;20187;-65
2022/04/03 05:04:23;;;;;;;221.43;75.27;;;;;;;0.08;100.00;100623.97;5062929;28;20236;-63
2022/04/03 05:06:50;;;;;;;246.77;83.77;;;;;;;0.10;100.00;100624.91;5063103;28;20183;-63
2022/04/03 05:09:17;;;;;;;247.37;80.97;;;;;;;0.10;100.00;100630.88;5061876;28;20206;-63
2022/04/03 05:11:45;;;;;;;215.33;74.97;;;;;;;0.11;100.00;100632.63;5059662;28;20666;-65
2022/04/03 05:14:10;;;;;;;244.37;79.10;;;;;;;0.12;100.00;100628.38;5063977;28;20191;-65
2022/04/03 05:16:37;;;;;;;209.57;71.83;;;;;;;0.14;100.00;100634.41;5061528;28;20205;-63
2022/04/03 05:19:02;;;;;;;193.97;70.00;;;;;;;0.18;100.00;100637.94;5064850;28;20238;-63
2022/04/03 05:21:28;;;;;;;213.43;70.93;;;;;;;0.21;100.00;100649.13;5057767;28;20228;-64
2022/04/03 05:23:53;;;;;;;200.53;73.50;;;;;;;0.22;100.00;100645.78;5058787;28;20206;-63
2022/04/03 05:26:19;;;;;;;213.60;76.17;;;;;;;0.23;100.00;100644.94;5056635;28;21665;-63
2022/04/03 05:28:44;;;;;;;200.33;68.27;;;;;;;0.23;100.00;100650.03;5057647;28;20669;-64
2022/04/03 05:31:10;;;;;;;220.43;69.70;;;;;;;0.23;100.00;100646.63;5057573;28;20195;-65
2022/04/03 05:33:36;;;;;;;254.20;82.13;;;;;;;0.21;100.00;100654.22;5059514;28;20207;-62
2022/04/03 05:36:01;;;;;;;230.73;76.60;;;;;;;0.21;100.00;100655.88;5061050;28;20194;-63
2022/04/03 05:38:26;;;;;;;267.20;82.37;;;;;;;0.21;100.00;100648.25;5055261;28;20207;-62
2022/04/03 05:40:52;;;;;;;219.03;74.53;;;;;;;0.24;100.00;100653.47;5068878;28;20553;-63
2022/04/03 05:43:17;;;;;;;227.97;74.60;;;;;;;0.24;100.00;100653.47;5065944;28;20279;-62
2022/04/03 05:45:43;;;;;;;225.37;75.77;;;;;;;0.23;100.00;100652.56;5064605;28;20226;-64
2022/04/03 05:48:08;;;;;;;205.13;72.83;;;;;;;0.23;100.00;100662.75;5058529;28;20209;-62
2022/04/03 05:50:35;;;;;;;181.53;65.67;;;;;;;0.21;100.00;100658.41;5068509;28;20725;-62
2022/04/03 05:53:00;;;;;;;203.60;71.53;;;;;;;0.21;100.00;100654.22;5059176;28;20216;-62
2022/04/03 05:55:26;;;;;;;207.03;71.77;;;;;;;0.21;100.00;100660.97;5062792;28;20183;-62
2022/04/03 05:57:53;;;;;;;197.43;66.83;;;;;;;0.22;100.00;100658.50;5060892;28;20186;-62
2022/04/03 06:00:20;;;;;;;221.33;74.13;;;;;;;0.25;100.00;100663.69;5064065;28;20191;-63
2022/04/03 06:02:56;;;;;;;204.07;67.17;;;;;;;0.26;100.00;100667.97;5064310;28;20638;-61
2022/04/03 06:05:23;;;;;;;162.70;61.80;;;;;;;0.27;100.00;100672.25;5058880;28;20187;-62
2022/04/03 06:07:49;;;;;;;167.63;64.60;;;;;;;0.32;100.00;100666.47;5057117;28;20213;-62
2022/04/03 06:10:15;;;;;;;161.53;61.40;;;;;;;0.36;100.00;100674.28;5062327;28;20225;-62
2022/04/03 06:12:56;;;;;;;172.93;63.87;;;;;;;0.42;100.00;100684.72;5060605;28;20797;-62
2022/04/03 06:15:22;;;;;;;180.53;65.43;;;;;;;0.50;100.00;100689.22;5065886;28;20189;-64
2022/04/03 06:17:49;;;;;;;200.20;70.67;;;;;;;0.56;100.00;100692.88;5063175;28;20188;-64
2022/04/03 06:20:14;;;;;;;187.00;65.97;;;;;;;0.62;100.00;100692.25;5063274;28;20193;-64
2022/04/03 06:22:40;;;;;;;177.90;63.47;;;;;;;0.69;100.00;100690.78;5066856;28;20519;-62
2022/04/03 06:25:06;;;;;;;200.83;67.00;;;;;;;0.76;100.00;100698.72;5075581;28;20193;-63
2022/04/03 06:27:32;;;;;;;163.73;62.57;;;;;;;0.83;100.00;100701.53;5075033;28;20656;-62
2022/04/03 06:29:58;;;;;;;165.40;61.07;;;;;;;0.89;100.00;100706.84;5066854;28;20244;-63
2022/04/03 06:32:23;;;;;;;150.80;57.37;;;;;;;0.93;100.00;100707.84;5065671;28;20201;-62
2022/04/03 06:34:50;;;;;;;153.13;59.23;;;;;;;0.94;100.00;100700.22;5069311;28;20350;-62
2022/04/03 06:37:15;;;;;;;142.03;56.70;;;;;;;0.99;100.00;100706.38;5062686;28;20639;-62
2022/04/03 06:39:40;;;;;;;135.67;55.03;;;;;;;1.01;100.00;100707.31;5065304;28;20205;-62
2022/04/03 06:42:07;;;;;;;118.63;50.43;;;;;;;0.96;100.00;100715.59;5065756;28;20292;-62
2022/04/03 06:44:37;;;;;;;112.63;50.20;;;;;;;0.97;100.00;100712.25;5065442;28;20186;-62
2022/04/03 06:47:05;;;;;;;118.87;51.33;;;;;;;1.01;100.00;100720.06;5067124;28;20197;-62
2022/04/03 06:49:31;;;;;;;105.10;47.70;;;;;;;1.05;100.00;100727.00;5068349;28;20205;-60
2022/04/03 06:51:56;;;;;;;91.30;44.70;;;;;;;1.02;100.00;100726.00;5057553;28;20693;-62
2022/04/03 06:54:21;;;;;;;96.67;46.57;;;;;;;1.07;100.00;100724.50;5066079;28;20339;-64
2022/04/03 06:56:47;;;;;;;85.47;43.07;;;;;;;1.09;100.00;100733.06;5059962;28;20182;-63
2022/04/03 06:59:12;;;;;;;88.70;43.20;;;;;;;1.41;100.00;100725.72;5064323;28;20565;-64
2022/04/03 07:01:38;;;;;;;94.20;43.33;;;;;;;1.61;100.00;100728.09;5062567;28;20598;-60
2022/04/03 07:04:04;;;;;;;83.90;41.47;;;;;;;1.92;100.00;100721.47;5065620;28;20194;-60
2022/04/03 07:06:29;;;;;;;82.67;40.33;;;;;;;2.11;100.00;100735.75;5064250;28;20189;-62
2022/04/03 07:08:54;;;;;;;50.60;29.70;;;;;;;1.75;100.00;100731.97;5067722;28;20209;-62
2022/04/03 07:11:20;;;;;;;46.63;28.47;;;;;;;1.76;100.00;100733.72;5062976;28;20658;-59
2022/04/03 07:13:45;;;;;;;55.00;31.97;;;;;;;2.14;100.00;100740.91;5067177;28;20741;-61
2022/04/03 07:16:11;;;;;;;40.10;27.10;;;;;;;2.36;100.00;100747.59;5061386;28;20209;-62
2022/04/03 07:18:37;;;;;;;38.27;25.00;;;;;;;2.40;100.00;100744.31;5062412;28;20213;-60
2022/04/03 07:21:02;;;;;;;35.90;23.40;;;;;;;2.22;100.00;100749.72;5064452;28;20277;-60
2022/04/03 07:23:28;;;;;;;36.50;23.93;;;;;;;2.47;100.00;100752.19;5069055;28;20204;-60
2022/04/03 07:25:53;;;;;;;27.73;19.57;;;;;;;2.46;100.00;100751.31;5067345;28;20205;-60
2022/04/03 07:28:19;;;;;;;28.87;19.20;;;;;;;2.70;100.00;100758.88;5063822;28;20700;-60
2022/04/03 07:30:44;;;;;;;32.97;22.80;;;;;;;2.81;100.00;100751.53;5071277;28;20266;-60
2022/04/03 07:33:10;;;;;;;24.97;18.13;;;;;;;2.59;100.00;100752.56;5071898;28;20209;-60
2022/04/03 07:35:37;;;;;;;27.50;19.53;;;;;;;2.43;100.00;100754.66;5072747;28;20190;-62
2022/04/03 07:38:02;;;;;;;30.27;21.77;;;;;;;2.72;100.00;100751.28;5067770;28;20189;-62
2022/04/03 07:40:28;;;;;;;35.47;24.07;;;;;;;2.82;100.00;100760.94;5066496;28;20251;-62
2022/04/03 07:42:53;;;;;;;41.97;27.70;;;;;;;3.17;100.00;100750.91;5064725;28;20305;-62
2022/04/03 07:45:18;;;;;;;41.13;28.03;;;;;;;3.17;100.00;100752.56;5065531;28;20272;-61
2022/04/03 07:47:46;;;;;;;37.93;25.90;;;;;;;3.13;100.00;100758.41;5064826;28;20194;-62
2022/04/03 07:50:11;;;;;;;46.67;31.27;;;;;;;3.37;100.00;100759.97;5068554;28;20754;-62
2022/04/03 07:52:37;;;;;;;46.43;30.63;;;;;;;3.57;100.00;100757.94;5062427;28;20254;-63
2022/04/03 07:55:02;;;;;;;51.90;34.47;;;;;;;3.74;100.00;100768.63;5071016;28;20198;-61
2022/04/03 07:57:28;;;;;;;44.37;30.87;;;;;;;3.69;100.00;100767.66;5064159;28;20198;-61
2022/04/03 07:59:53;;;;;;;47.13;32.07;;;;;;;3.76;100.00;100772.09;5065951;28;20223;-61
2022/04/03 08:02:18;;;;;;;48.37;32.27;;;;;;;3.98;100.00;100770.97;5064375;28;20265;-60
2022/04/03 08:04:44;;;;;;;35.03;26.13;;;;;;;3.31;100.00;100766.63;5064033;28;20227;-61
2022/04/03 08:07:09;;;;;;;37.77;26.17;;;;;;;3.61;100.00;100775.13;5064067;28;20197;-61
2022/04/03 08:09:34;;;;;;;32.00;25.73;;;;;;;3.41;100.00;100772.00;5058990;28;20683;-61
2022/04/03 08:12:00;;;;;;;33.57;24.50;;;;;;;3.83;100.00;100768.88;5068332;28;20213;-61
2022/04/03 08:14:27;;;;;;;31.30;25.07;;;;;;;4.21;100.00;100769.00;5061499;28;20182;-60
2022/04/03 08:16:53;;;;;;;25.83;21.87;;;;;;;4.07;100.00;100771.22;5068793;28;20673;-61
2022/04/03 08:19:18;;;;;;;30.07;23.63;;;;;;;4.55;100.00;100771.50;5068007;28;20202;-61
2022/04/03 08:21:43;;;;;;;32.63;23.83;;;;;;;5.06;100.00;100777.78;5068134;28;20221;-62
2022/04/03 08:24:11;;;;;;;30.03;24.47;;;;;;;5.60;100.00;100775.44;5064530;28;20189;-61
2022/04/03 08:26:37;;;;;;;24.60;20.37;;;;;;;5.92;100.00;100776.03;5063479;28;20514;-61
2022/04/03 08:29:02;;;;;;;26.87;22.07;;;;;;;6.30;100.00;100772.41;5062750;28;20215;-62
2022/04/03 08:31:28;;;;;;;24.63;20.73;;;;;;;6.54;100.00;100774.50;5059449;28;20202;-61
2022/04/03 08:33:53;;;;;;;19.77;17.67;;;;;;;6.30;100.00;100782.69;5069560;28;20224;-61
2022/04/03 08:36:19;;;;;;;20.17;18.03;;;;;;;6.40;100.00;100781.16;5062513;28;20183;-62
2022/04/03 08:38:46;;;;;;;23.67;18.33;;;;;;;6.79;100.00;100771.44;5065128;28;20241;-61
2022/04/03 08:41:11;;;;;;;18.87;16.67;;;;;;;6.90;100.00;100780.19;5063699;28;20191;-60
2022/04/03 08:43:40;;;;;;;14.87;13.37;;;;;;;6.68;100.00;100776.44;5067009;28;20586;-61
2022/04/03 08:46:06;;;;;;;18.20;15.80;;;;;;;6.81;100.00;100783.47;5066236;28;20194;-61
2022/04/03 08:48:32;;;;;;;20.10;17.37;;;;;;;6.89;100.00;100780.16;5068894;28;20196;-61
2022/04/03 08:51:03;;;;;;;14.73;13.23;;;;;;;6.52;100.00;100775.34;5066371;28;20202;-61
2022/04/03 08:53:30;;;;;;;15.83;13.53;;;;;;;6.84;100.00;100775.81;5061039;28;20271;-61
2022/04/03 08:55:55;;;;;;;16.80;15.00;;;;;;;7.06;100.00;100773.53;5063258;28;20562;-62
2022/04/03 08:58:21;;;;;;;18.10;16.17;;;;;;;7.23;100.00;100776.31;5062764;28;20213;-61
2022/04/03 09:00:46;;;;;;;16.57;14.93;;;;;;;7.26;100.00;100775.53;5064588;28;20601;-63
2022/04/03 09:03:14;;;;;;;14.50;13.00;;;;;;;6.96;100.00;100766.53;5068927;28;20188;-60
2022/04/03 09:05:41;;;;;;;15.90;14.23;;;;;;;6.98;100.00;100770.00;5065342;28;20240;-60
2022/04/03 09:08:09;;;;;;;14.97;13.40;;;;;;;6.71;100.00;100771.34;5065711;28;20297;-60
2022/04/03 09:10:35;;;;;;;15.13;13.60;;;;;;;6.78;100.00;100767.13;5065294;28;20191;-61
2022/04/03 09:13:01;;;;;;;17.70;16.00;;;;;;;7.14;100.00;100760.78;5063730;28;20268;-60
2022/04/03 09:15:28;;;;;;;18.10;16.30;;;;;;;7.48;100.00;100767.19;5067632;28;20200;-60
2022/04/03 09:17:56;;;;;;;16.83;15.10;;;;;;;7.39;100.00;100763.63;5059991;28;20332;-60
2022/04/03 09:20:40;;;;;;;16.00;14.50;;;;;;;7.45;100.00;100781.75;5075306;28;20711;-61
2022/04/03 09:23:07;;;;;;;17.67;15.80;;;;;;;7.10;100.00;100771.88;5066228;28;20186;-60
2022/04/03 09:25:35;;;;;;;17.10;15.40;;;;;;;7.40;100.00;100778.25;5064849;28;20203;-60
2022/04/03 09:28:03;;;;;;;16.93;15.10;;;;;;;7.18;100.00;100775.44;5065729;28;20190;-60
2022/04/03 09:30:31;;;;;;;14.57;13.27;;;;;;;6.92;100.00;100783.63;5058994;28;20279;-60
2022/04/03 09:32:59;;;;;;;15.53;14.00;;;;;;;6.80;100.00;100781.78;5067934;28;20261;-60
2022/04/03 09:35:29;;;;;;;15.40;14.00;;;;;;;6.59;100.00;100782.28;5066018;28;20200;-60
2022/04/03 09:38:04;;;;;;;13.97;12.77;;;;;;;6.06;100.00;100794.31;5064524;28;20560;-60
2022/04/03 09:40:30;;;;;;;13.50;12.10;;;;;;;5.52;100.00;100793.25;5064238;28;20187;-60
2022/04/03 09:43:24;;;;;;;12.40;11.27;;;;;;;5.45;100.00;100791.38;5064212;28;22222;-60
2022/04/03 09:46:00;;;;;;;15.67;13.80;;;;;;;5.29;100.00;100795.34;5057748;28;20202;-60
2022/04/03 09:48:28;;;;;;;16.37;14.63;;;;;;;5.17;100.00;100795.94;5064235;28;20578;-60
2022/04/03 09:51:10;;;;;;;17.50;15.70;;;;;;;4.95;100.00;100805.75;5068287;28;20186;-60
2022/04/03 09:53:49;;;;;;;18.30;15.60;;;;;;;5.07;100.00;100807.72;5061626;28;20218;-60
2022/04/03 09:56:26;;;;;;;18.63;16.00;;;;;;;5.05;100.00;100809.41;5069955;28;20189;-60
2022/04/03 09:58:52;;;;;;;15.70;14.20;;;;;;;4.92;100.00;100804.81;5068761;28;20210;-60
2022/04/03 10:01:28;;;;;;;17.03;15.20;;;;;;;4.93;100.00;100815.13;5061054;28;20210;-62
2022/04/03 10:03:54;;;;;;;17.00;15.27;;;;;;;4.75;100.00;100810.44;5063889;28;20189;-60
2022/04/03 10:06:21;;;;;;;16.57;14.57;;;;;;;4.65;100.00;100817.03;5066456;28;20200;-59
2022/04/03 10:08:47;;;;;;;16.00;14.27;;;;;;;4.56;100.00;100821.94;5055699;28;20579;-60
2022/04/03 10:11:16;;;;;;;15.27;13.67;;;;;;;4.53;100.00;100821.88;5055997;28;20186;-60
2022/04/03 10:13:45;;;;;;;15.67;14.10;;;;;;;4.49;100.00;100822.63;5058723;28;20689;-60
2022/04/03 10:16:11;;;;;;;17.13;15.40;;;;;;;4.42;100.00;100822.47;5066114;28;20788;-60
2022/04/03 10:18:37;;;;;;;17.40;15.43;;;;;;;4.38;100.00;100823.25;5060868;28;20301;-60
2022/04/03 10:21:06;;;;;;;18.57;14.87;;;;;;;4.39;100.00;100816.41;5069026;28;20193;-61
2022/04/03 10:23:33;;;;;;;14.83;13.33;;;;;;;4.06;100.00;100823.28;5066368;28;20272;-60
2022/04/03 10:26:02;;;;;;;17.37;15.03;;;;;;;3.85;100.00;100831.25;5070169;28;20199;-60
2022/04/03 10:28:28;;;;;;;15.83;13.03;;;;;;;3.68;100.00;100838.44;5060572;28;20245;-60
2022/04/03 10:31:06;;;;;;;16.50;14.70;;;;;;;3.53;100.00;100828.66;5063959;28;20197;-60
2022/04/03 10:33:38;;;;;;;16.40;14.70;;;;;;;3.51;100.00;100830.31;5056076;28;20296;-59
2022/04/03 10:36:06;;;;;;;16.93;14.67;;;;;;;3.49;100.00;100827.69;5062744;28;20211;-63
2022/04/03 10:38:42;;;;;;;19.30;15.30;;;;;;;3.53;100.00;100831.22;5068506;28;20210;-60
2022/04/03 10:41:24;;;;;;;16.83;14.60;;;;;;;3.53;100.00;100823.53;5063558;28;20194;-60
2022/04/03 10:43:49;;;;;;;16.03;12.30;;;;;;;3.24;100.00;100832.91;5063791;28;20178;-60
2022/04/03 10:46:14;;;;;;;14.30;11.03;;;;;;;3.34;100.00;100830.69;5063741;28;21026;-61
2022/04/03 10:48:40;;;;;;;14.90;13.37;;;;;;;3.78;100.00;100829.34;5058916;28;20625;-60
2022/04/03 10:51:08;;;;;;;14.63;13.13;;;;;;;4.03;100.00;100832.53;5057679;28;20237;-61
2022/04/03 10:53:48;;;;;;;17.17;15.03;;;;;;;4.29;100.00;100825.56;5064019;28;20294;-60
2022/04/03 10:56:26;;;;;;;15.00;13.50;;;;;;;4.34;100.00;100820.53;5064523;28;20325;-60
2022/04/03 10:58:56;;;;;;;14.93;13.43;;;;;;;4.40;100.00;100820.69;5059954;28;20233;-59
2022/04/03 11:01:32;;;;;;;13.97;12.50;;;;;;;4.45;100.00;100823.38;5064187;28;20959;-58